Terminal Aerodrome Forecast
Issued by NWS

Home | Current Version | Previous Version | Graphics & Text | Print | Product List | Glossary On
Versions: 1 2 3 4 5 6 7 8 9 10 11 12 13 14 15 16 17 18 19 20 21 22 23 24 25 26 27 28
000
FTUS43 KGRB 171700
TAFCWA
TAF
KCWA 171739Z 1718/1818 09004KT P6SM BKN015
     FM172100 12007KT P6SM SCT020
     FM180200 11003KT P6SM SCT040 BKN200
     FM180600 10005KT P6SM SCT030 BKN100
     FM181000 13004KT 6SM BR BKN030 OVC050
      TEMPO 1814/1818 4SM -TSRA BR OVC025CB=

USA.gov is the U.S. government's official web portal to all federal, state and local government web resources and services.